WC StCyr

Date de la prise de vue : 30/07/2021 05:21:19
Et voilĂ  le METAR et le TAF :
2021/07/30 03:00 LFPN 300300Z AUTO 22005KT CAVOK 13/11 Q1011
2021/07/29 21:33 TAF TAF LFPN 292126Z 2921/3003 CNL